sensor_id;sensor_type;location;lat;lon;timestamp;P1;durP1;ratioP1;P2;durP2;ratioP2
63007;SDS011;49266;47.552;19.078;2022-12-07T00:04:01;32.42;;;19.45;;
63007;SDS011;49266;47.552;19.078;2022-12-07T00:08:46;32.35;;;19.08;;
63007;SDS011;49266;47.552;19.078;2022-12-07T00:13:26;28.50;;;18.42;;
63007;SDS011;49266;47.552;19.078;2022-12-07T00:18:06;31.00;;;18.95;;
63007;SDS011;49266;47.552;19.078;2022-12-07T00:22:47;27.40;;;17.00;;
63007;SDS011;49266;47.552;19.078;2022-12-07T00:27:27;28.73;;;18.13;;
63007;SDS011;49266;47.552;19.078;2022-12-07T00:32:07;29.73;;;18.40;;
63007;SDS011;49266;47.552;19.078;2022-12-07T00:36:47;31.17;;;18.60;;
63007;SDS011;49266;47.552;19.078;2022-12-07T00:41:28;29.17;;;19.20;;
63007;SDS011;49266;47.552;19.078;2022-12-07T00:46:09;25.85;;;17.10;;
63007;SDS011;49266;47.552;19.078;2022-12-07T00:50:49;30.55;;;18.27;;
63007;SDS011;49266;47.552;19.078;2022-12-07T00:55:32;28.85;;;17.60;;
63007;SDS011;49266;47.552;19.078;2022-12-07T01:00:12;36.15;;;20.67;;
63007;SDS011;49266;47.552;19.078;2022-12-07T01:04:53;31.17;;;20.27;;
63007;SDS011;49266;47.552;19.078;2022-12-07T01:09:33;33.35;;;19.67;;
63007;SDS011;49266;47.552;19.078;2022-12-07T01:14:13;31.75;;;20.10;;
63007;SDS011;49266;47.552;19.078;2022-12-07T01:18:55;31.67;;;20.17;;
63007;SDS011;49266;47.552;19.078;2022-12-07T01:23:35;28.77;;;18.63;;
63007;SDS011;49266;47.552;19.078;2022-12-07T01:28:15;39.58;;;22.08;;
63007;SDS011;49266;47.552;19.078;2022-12-07T01:32:55;32.63;;;21.63;;
63007;SDS011;49266;47.552;19.078;2022-12-07T01:37:36;36.05;;;21.70;;
63007;SDS011;49266;47.552;19.078;2022-12-07T01:42:17;40.17;;;24.17;;
63007;SDS011;49266;47.552;19.078;2022-12-07T01:46:58;40.17;;;24.65;;
63007;SDS011;49266;47.552;19.078;2022-12-07T01:51:39;38.65;;;22.70;;
63007;SDS011;49266;47.552;19.078;2022-12-07T01:56:22;39.63;;;23.63;;
63007;SDS011;49266;47.552;19.078;2022-12-07T02:01:03;35.10;;;22.27;;
63007;SDS011;49266;47.552;19.078;2022-12-07T02:05:44;37.97;;;23.20;;
63007;SDS011;49266;47.552;19.078;2022-12-07T02:10:27;36.35;;;23.25;;
63007;SDS011;49266;47.552;19.078;2022-12-07T02:15:07;37.78;;;22.50;;
63007;SDS011;49266;47.552;19.078;2022-12-07T02:29:27;34.80;;;21.98;;
63007;SDS011;49266;47.552;19.078;2022-12-07T02:34:54;38.53;;;22.48;;
63007;SDS011;49266;47.552;19.078;2022-12-07T02:39:17;35.45;;;21.75;;
63007;SDS011;49266;47.552;19.078;2022-12-07T02:44:00;36.38;;;22.65;;
63007;SDS011;49266;47.552;19.078;2022-12-07T02:48:41;36.03;;;22.75;;
63007;SDS011;49266;47.552;19.078;2022-12-07T03:03:15;35.60;;;22.95;;
63007;SDS011;49266;47.552;19.078;2022-12-07T03:17:34;37.83;;;23.88;;
63007;SDS011;49266;47.552;19.078;2022-12-07T03:22:15;34.97;;;23.73;;
63007;SDS011;49266;47.552;19.078;2022-12-07T03:27:03;37.78;;;23.48;;
63007;SDS011;49266;47.552;19.078;2022-12-07T03:31:46;40.22;;;25.00;;
63007;SDS011;49266;47.552;19.078;2022-12-07T03:36:31;37.72;;;23.67;;
63007;SDS011;49266;47.552;19.078;2022-12-07T03:41:25;34.60;;;23.27;;
63007;SDS011;49266;47.552;19.078;2022-12-07T03:51:36;40.08;;;25.20;;
63007;SDS011;49266;47.552;19.078;2022-12-07T03:55:55;38.97;;;23.30;;
63007;SDS011;49266;47.552;19.078;2022-12-07T04:00:36;37.88;;;23.80;;
63007;SDS011;49266;47.552;19.078;2022-12-07T04:05:17;38.95;;;25.50;;
63007;SDS011;49266;47.552;19.078;2022-12-07T04:09:57;34.76;;;21.36;;
63007;SDS011;49266;47.552;19.078;2022-12-07T04:14:37;34.30;;;20.40;;
63007;SDS011;49266;47.552;19.078;2022-12-07T04:19:18;29.25;;;19.02;;
63007;SDS011;49266;47.552;19.078;2022-12-07T04:23:59;28.70;;;17.75;;
63007;SDS011;49266;47.552;19.078;2022-12-07T04:28:39;27.60;;;17.80;;
63007;SDS011;49266;47.552;19.078;2022-12-07T04:33:19;22.38;;;14.35;;
63007;SDS011;49266;47.552;19.078;2022-12-07T04:38:00;20.25;;;13.90;;
63007;SDS011;49266;47.552;19.078;2022-12-07T04:42:40;16.90;;;10.98;;
63007;SDS011;49266;47.552;19.078;2022-12-07T04:47:20;16.02;;;10.52;;
63007;SDS011;49266;47.552;19.078;2022-12-07T04:52:00;13.45;;;9.57;;
63007;SDS011;49266;47.552;19.078;2022-12-07T04:56:41;11.90;;;8.60;;
63007;SDS011;49266;47.552;19.078;2022-12-07T05:01:21;13.20;;;7.95;;
63007;SDS011;49266;47.552;19.078;2022-12-07T05:06:01;10.43;;;7.22;;
63007;SDS011;49266;47.552;19.078;2022-12-07T05:10:42;8.45;;;5.72;;
63007;SDS011;49266;47.552;19.078;2022-12-07T05:15:22;8.07;;;5.70;;
63007;SDS011;49266;47.552;19.078;2022-12-07T05:20:02;8.02;;;5.53;;
63007;SDS011;49266;47.552;19.078;2022-12-07T05:24:42;9.55;;;5.45;;
63007;SDS011;49266;47.552;19.078;2022-12-07T05:29:23;6.97;;;4.82;;
63007;SDS011;49266;47.552;19.078;2022-12-07T05:34:03;7.65;;;5.25;;
63007;SDS011;49266;47.552;19.078;2022-12-07T05:38:43;8.85;;;5.60;;
63007;SDS011;49266;47.552;19.078;2022-12-07T05:43:23;9.32;;;6.10;;
63007;SDS011;49266;47.552;19.078;2022-12-07T05:48:04;11.65;;;6.72;;
63007;SDS011;49266;47.552;19.078;2022-12-07T05:52:44;9.13;;;6.45;;
63007;SDS011;49266;47.552;19.078;2022-12-07T05:57:24;10.05;;;6.78;;
63007;SDS011;49266;47.552;19.078;2022-12-07T06:02:06;10.57;;;7.45;;
63007;SDS011;49266;47.552;19.078;2022-12-07T06:06:46;9.55;;;6.90;;
63007;SDS011;49266;47.552;19.078;2022-12-07T06:11:26;9.02;;;6.35;;
63007;SDS011;49266;47.552;19.078;2022-12-07T06:16:25;9.40;;;6.80;;
63007;SDS011;49266;47.552;19.078;2022-12-07T06:21:05;12.63;;;8.00;;
63007;SDS011;49266;47.552;19.078;2022-12-07T06:25:46;11.30;;;8.02;;
63007;SDS011;49266;47.552;19.078;2022-12-07T06:30:26;9.57;;;7.18;;
63007;SDS011;49266;47.552;19.078;2022-12-07T06:35:06;11.73;;;8.20;;
63007;SDS011;49266;47.552;19.078;2022-12-07T06:39:46;19.33;;;12.77;;
63007;SDS011;49266;47.552;19.078;2022-12-07T06:44:27;45.42;;;19.17;;
63007;SDS011;49266;47.552;19.078;2022-12-07T06:49:07;40.53;;;19.05;;
63007;SDS011;49266;47.552;19.078;2022-12-07T06:53:47;31.23;;;19.05;;
63007;SDS011;49266;47.552;19.078;2022-12-07T06:58:27;31.38;;;17.65;;
63007;SDS011;49266;47.552;19.078;2022-12-07T07:03:08;30.38;;;20.38;;
63007;SDS011;49266;47.552;19.078;2022-12-07T07:07:48;31.45;;;20.77;;
63007;SDS011;49266;47.552;19.078;2022-12-07T07:12:28;39.35;;;24.55;;
63007;SDS011;49266;47.552;19.078;2022-12-07T07:17:09;35.13;;;22.95;;
63007;SDS011;49266;47.552;19.078;2022-12-07T07:21:49;39.92;;;25.05;;
63007;SDS011;49266;47.552;19.078;2022-12-07T07:26:29;36.85;;;23.48;;
63007;SDS011;49266;47.552;19.078;2022-12-07T07:31:10;40.75;;;25.45;;
63007;SDS011;49266;47.552;19.078;2022-12-07T07:35:50;39.45;;;25.73;;
63007;SDS011;49266;47.552;19.078;2022-12-07T07:40:30;43.80;;;25.60;;
63007;SDS011;49266;47.552;19.078;2022-12-07T07:45:11;39.47;;;25.55;;
63007;SDS011;49266;47.552;19.078;2022-12-07T07:49:51;42.20;;;25.85;;
63007;SDS011;49266;47.552;19.078;2022-12-07T07:54:31;47.65;;;24.50;;
63007;SDS011;49266;47.552;19.078;2022-12-07T07:59:11;49.10;;;30.52;;
63007;SDS011;49266;47.552;19.078;2022-12-07T08:03:52;48.88;;;30.63;;
63007;SDS011;49266;47.552;19.078;2022-12-07T08:08:32;43.97;;;28.67;;
63007;SDS011;49266;47.552;19.078;2022-12-07T08:13:14;47.03;;;30.33;;
63007;SDS011;49266;47.552;19.078;2022-12-07T08:17:55;48.08;;;30.55;;
63007;SDS011;49266;47.552;19.078;2022-12-07T08:22:35;43.38;;;27.92;;
63007;SDS011;49266;47.552;19.078;2022-12-07T08:27:15;47.63;;;30.20;;
63007;SDS011;49266;47.552;19.078;2022-12-07T08:31:55;48.13;;;29.88;;
63007;SDS011;49266;47.552;19.078;2022-12-07T08:36:36;42.58;;;28.23;;
63007;SDS011;49266;47.552;19.078;2022-12-07T08:41:16;45.72;;;29.35;;
63007;SDS011;49266;47.552;19.078;2022-12-07T08:51:13;41.60;;;26.83;;
63007;SDS011;49266;47.552;19.078;2022-12-07T08:55:54;35.72;;;23.50;;
63007;SDS011;49266;47.552;19.078;2022-12-07T09:00:35;30.40;;;20.42;;
63007;SDS011;49266;47.552;19.078;2022-12-07T09:05:15;26.25;;;17.63;;
63007;SDS011;49266;47.552;19.078;2022-12-07T09:09:55;25.58;;;16.10;;
63007;SDS011;49266;47.552;19.078;2022-12-07T09:14:36;22.83;;;14.95;;
63007;SDS011;49266;47.552;19.078;2022-12-07T09:19:16;22.50;;;15.77;;
63007;SDS011;49266;47.552;19.078;2022-12-07T09:23:56;21.38;;;14.38;;
63007;SDS011;49266;47.552;19.078;2022-12-07T09:28:36;23.80;;;15.65;;
63007;SDS011;49266;47.552;19.078;2022-12-07T09:33:17;24.13;;;15.25;;
63007;SDS011;49266;47.552;19.078;2022-12-07T09:37:57;21.43;;;15.40;;
63007;SDS011;49266;47.552;19.078;2022-12-07T09:42:51;22.85;;;15.38;;
63007;SDS011;49266;47.552;19.078;2022-12-07T09:47:32;20.23;;;14.30;;
63007;SDS011;49266;47.552;19.078;2022-12-07T09:52:17;19.95;;;13.95;;
63007;SDS011;49266;47.552;19.078;2022-12-07T09:56:58;17.67;;;12.55;;
63007;SDS011;49266;47.552;19.078;2022-12-07T10:01:38;17.50;;;12.27;;
63007;SDS011;49266;47.552;19.078;2022-12-07T10:06:19;16.63;;;11.60;;
63007;SDS011;49266;47.552;19.078;2022-12-07T10:11:01;15.93;;;10.70;;
63007;SDS011;49266;47.552;19.078;2022-12-07T10:15:50;15.15;;;10.95;;
63007;SDS011;49266;47.552;19.078;2022-12-07T10:20:32;19.10;;;8.77;;
63007;SDS011;49266;47.552;19.078;2022-12-07T10:25:19;13.93;;;8.23;;
63007;SDS011;49266;47.552;19.078;2022-12-07T10:29:59;11.98;;;8.80;;
63007;SDS011;49266;47.552;19.078;2022-12-07T10:34:40;14.15;;;8.93;;
63007;SDS011;49266;47.552;19.078;2022-12-07T10:39:21;13.20;;;9.30;;
63007;SDS011;49266;47.552;19.078;2022-12-07T10:44:01;12.80;;;9.00;;
63007;SDS011;49266;47.552;19.078;2022-12-07T10:48:54;11.70;;;8.45;;
63007;SDS011;49266;47.552;19.078;2022-12-07T11:03:37;12.25;;;9.18;;
63007;SDS011;49266;47.552;19.078;2022-12-07T11:08:30;14.45;;;9.02;;
63007;SDS011;49266;47.552;19.078;2022-12-07T11:18:06;14.47;;;9.73;;
63007;SDS011;49266;47.552;19.078;2022-12-07T11:27:48;11.98;;;8.65;;
63007;SDS011;49266;47.552;19.078;2022-12-07T11:37:30;13.07;;;9.18;;
63007;SDS011;49266;47.552;19.078;2022-12-07T11:42:16;13.43;;;9.30;;
63007;SDS011;49266;47.552;19.078;2022-12-07T11:47:05;10.98;;;7.93;;
63007;SDS011;49266;47.552;19.078;2022-12-07T11:51:48;11.50;;;8.38;;
63007;SDS011;49266;47.552;19.078;2022-12-07T11:56:31;10.95;;;7.75;;
63007;SDS011;49266;47.552;19.078;2022-12-07T12:01:31;11.70;;;8.10;;
63007;SDS011;49266;47.552;19.078;2022-12-07T12:06:15;10.43;;;7.45;;
63007;SDS011;49266;47.552;19.078;2022-12-07T12:10:57;9.68;;;6.63;;
63007;SDS011;49266;47.552;19.078;2022-12-07T12:20:26;10.75;;;7.25;;
63007;SDS011;49266;47.552;19.078;2022-12-07T12:25:20;10.57;;;7.80;;
63007;SDS011;49266;47.552;19.078;2022-12-07T12:30:02;10.25;;;7.88;;
63007;SDS011;49266;47.552;19.078;2022-12-07T12:39:27;12.98;;;8.93;;
63007;SDS011;49266;47.552;19.078;2022-12-07T12:54:04;14.55;;;9.52;;
63007;SDS011;49266;47.552;19.078;2022-12-07T12:58:45;13.07;;;8.93;;
63007;SDS011;49266;47.552;19.078;2022-12-07T13:03:29;9.93;;;7.03;;
63007;SDS011;49266;47.552;19.078;2022-12-07T13:08:21;8.98;;;6.18;;
63007;SDS011;49266;47.552;19.078;2022-12-07T13:13:04;8.23;;;6.30;;
63007;SDS011;49266;47.552;19.078;2022-12-07T13:27:10;10.52;;;6.53;;
63007;SDS011;49266;47.552;19.078;2022-12-07T13:31:52;9.93;;;7.00;;
63007;SDS011;49266;47.552;19.078;2022-12-07T13:36:36;11.45;;;8.05;;
63007;SDS011;49266;47.552;19.078;2022-12-07T13:41:18;12.30;;;8.23;;
63007;SDS011;49266;47.552;19.078;2022-12-07T13:45:59;10.90;;;7.90;;
63007;SDS011;49266;47.552;19.078;2022-12-07T13:50:40;12.35;;;9.20;;
63007;SDS011;49266;47.552;19.078;2022-12-07T13:55:21;12.70;;;8.60;;
63007;SDS011;49266;47.552;19.078;2022-12-07T14:00:03;14.85;;;9.75;;
63007;SDS011;49266;47.552;19.078;2022-12-07T14:04:43;14.90;;;9.88;;
63007;SDS011;49266;47.552;19.078;2022-12-07T14:09:25;14.73;;;9.85;;
63007;SDS011;49266;47.552;19.078;2022-12-07T14:14:10;14.38;;;10.38;;
63007;SDS011;49266;47.552;19.078;2022-12-07T14:18:51;14.00;;;9.98;;
63007;SDS011;49266;47.552;19.078;2022-12-07T14:23:32;14.75;;;9.48;;
63007;SDS011;49266;47.552;19.078;2022-12-07T14:28:32;14.68;;;10.57;;
63007;SDS011;49266;47.552;19.078;2022-12-07T14:33:13;15.90;;;9.70;;
63007;SDS011;49266;47.552;19.078;2022-12-07T14:37:53;16.63;;;10.13;;
63007;SDS011;49266;47.552;19.078;2022-12-07T14:42:34;15.90;;;9.73;;
63007;SDS011;49266;47.552;19.078;2022-12-07T14:47:14;16.25;;;10.68;;
63007;SDS011;49266;47.552;19.078;2022-12-07T14:51:54;16.17;;;10.45;;
63007;SDS011;49266;47.552;19.078;2022-12-07T14:56:35;16.70;;;10.35;;
63007;SDS011;49266;47.552;19.078;2022-12-07T15:01:15;17.23;;;10.38;;
63007;SDS011;49266;47.552;19.078;2022-12-07T15:05:55;15.98;;;10.30;;
63007;SDS011;49266;47.552;19.078;2022-12-07T15:10:35;16.40;;;10.65;;
63007;SDS011;49266;47.552;19.078;2022-12-07T15:15:18;15.45;;;10.23;;
63007;SDS011;49266;47.552;19.078;2022-12-07T15:20:00;18.42;;;10.18;;
63007;SDS011;49266;47.552;19.078;2022-12-07T15:24:40;16.40;;;10.13;;
63007;SDS011;49266;47.552;19.078;2022-12-07T15:29:20;17.33;;;10.38;;
63007;SDS011;49266;47.552;19.078;2022-12-07T15:34:00;30.30;;;16.70;;
63007;SDS011;49266;47.552;19.078;2022-12-07T15:38:41;17.17;;;10.73;;
63007;SDS011;49266;47.552;19.078;2022-12-07T15:43:21;17.70;;;10.73;;
63007;SDS011;49266;47.552;19.078;2022-12-07T15:48:20;18.20;;;10.68;;
63007;SDS011;49266;47.552;19.078;2022-12-07T15:53:00;16.90;;;10.82;;
63007;SDS011;49266;47.552;19.078;2022-12-07T15:57:40;18.80;;;11.93;;
63007;SDS011;49266;47.552;19.078;2022-12-07T16:02:21;20.02;;;11.40;;
63007;SDS011;49266;47.552;19.078;2022-12-07T16:07:02;18.60;;;11.88;;
63007;SDS011;49266;47.552;19.078;2022-12-07T16:11:43;21.85;;;12.90;;
63007;SDS011;49266;47.552;19.078;2022-12-07T16:16:23;18.27;;;11.63;;
63007;SDS011;49266;47.552;19.078;2022-12-07T16:21:03;17.50;;;11.18;;
63007;SDS011;49266;47.552;19.078;2022-12-07T16:25:44;17.88;;;11.70;;
63007;SDS011;49266;47.552;19.078;2022-12-07T16:30:24;21.27;;;11.88;;
63007;SDS011;49266;47.552;19.078;2022-12-07T16:35:05;22.40;;;12.10;;
63007;SDS011;49266;47.552;19.078;2022-12-07T16:39:46;17.92;;;11.95;;
63007;SDS011;49266;47.552;19.078;2022-12-07T16:44:26;20.13;;;12.13;;
63007;SDS011;49266;47.552;19.078;2022-12-07T16:49:06;20.05;;;12.45;;
63007;SDS011;49266;47.552;19.078;2022-12-07T16:53:49;21.88;;;12.93;;
63007;SDS011;49266;47.552;19.078;2022-12-07T16:58:32;20.08;;;13.13;;
63007;SDS011;49266;47.552;19.078;2022-12-07T17:03:12;24.52;;;13.88;;
63007;SDS011;49266;47.552;19.078;2022-12-07T17:07:53;21.90;;;12.80;;
63007;SDS011;49266;47.552;19.078;2022-12-07T17:12:34;21.65;;;13.27;;
63007;SDS011;49266;47.552;19.078;2022-12-07T17:17:14;21.83;;;12.98;;
63007;SDS011;49266;47.552;19.078;2022-12-07T17:21:54;22.15;;;14.18;;
63007;SDS011;49266;47.552;19.078;2022-12-07T17:26:34;22.40;;;13.52;;
63007;SDS011;49266;47.552;19.078;2022-12-07T17:31:16;23.30;;;13.52;;
63007;SDS011;49266;47.552;19.078;2022-12-07T17:35:57;22.23;;;14.15;;
63007;SDS011;49266;47.552;19.078;2022-12-07T17:40:37;22.55;;;13.63;;
63007;SDS011;49266;47.552;19.078;2022-12-07T17:45:17;24.88;;;13.80;;
63007;SDS011;49266;47.552;19.078;2022-12-07T17:49:58;24.23;;;14.05;;
63007;SDS011;49266;47.552;19.078;2022-12-07T17:54:38;21.92;;;14.13;;
63007;SDS011;49266;47.552;19.078;2022-12-07T17:59:18;24.98;;;14.60;;
63007;SDS011;49266;47.552;19.078;2022-12-07T18:03:59;23.30;;;13.00;;
63007;SDS011;49266;47.552;19.078;2022-12-07T18:08:39;21.48;;;13.43;;
63007;SDS011;49266;47.552;19.078;2022-12-07T18:13:20;25.08;;;13.70;;
63007;SDS011;49266;47.552;19.078;2022-12-07T18:18:16;21.60;;;14.75;;
63007;SDS011;49266;47.552;19.078;2022-12-07T18:22:57;25.23;;;13.80;;
63007;SDS011;49266;47.552;19.078;2022-12-07T18:27:37;22.30;;;13.18;;
63007;SDS011;49266;47.552;19.078;2022-12-07T18:32:17;27.17;;;15.30;;
63007;SDS011;49266;47.552;19.078;2022-12-07T18:36:58;28.88;;;14.43;;
63007;SDS011;49266;47.552;19.078;2022-12-07T18:41:38;23.30;;;14.38;;
63007;SDS011;49266;47.552;19.078;2022-12-07T18:46:19;21.77;;;13.60;;
63007;SDS011;49266;47.552;19.078;2022-12-07T18:51:04;22.30;;;13.85;;
63007;SDS011;49266;47.552;19.078;2022-12-07T18:55:44;21.85;;;12.82;;
63007;SDS011;49266;47.552;19.078;2022-12-07T19:00:25;28.67;;;14.88;;
63007;SDS011;49266;47.552;19.078;2022-12-07T19:05:06;31.77;;;18.63;;
63007;SDS011;49266;47.552;19.078;2022-12-07T19:09:46;36.85;;;19.38;;
63007;SDS011;49266;47.552;19.078;2022-12-07T19:14:32;137.40;;;53.53;;
63007;SDS011;49266;47.552;19.078;2022-12-07T19:19:13;57.83;;;28.55;;
63007;SDS011;49266;47.552;19.078;2022-12-07T19:23:53;45.33;;;23.65;;
63007;SDS011;49266;47.552;19.078;2022-12-07T19:28:34;54.92;;;27.30;;
63007;SDS011;49266;47.552;19.078;2022-12-07T19:33:14;41.42;;;23.63;;
63007;SDS011;49266;47.552;19.078;2022-12-07T19:37:55;35.25;;;20.05;;
63007;SDS011;49266;47.552;19.078;2022-12-07T19:42:35;32.58;;;19.35;;
63007;SDS011;49266;47.552;19.078;2022-12-07T19:47:16;29.88;;;17.52;;
63007;SDS011;49266;47.552;19.078;2022-12-07T19:51:58;33.83;;;19.83;;
63007;SDS011;49266;47.552;19.078;2022-12-07T19:56:39;40.95;;;22.58;;
63007;SDS011;49266;47.552;19.078;2022-12-07T20:01:20;39.55;;;21.52;;
63007;SDS011;49266;47.552;19.078;2022-12-07T20:06:05;40.90;;;22.95;;
63007;SDS011;49266;47.552;19.078;2022-12-07T20:10:46;38.80;;;22.70;;
63007;SDS011;49266;47.552;19.078;2022-12-07T20:15:26;40.00;;;21.52;;
63007;SDS011;49266;47.552;19.078;2022-12-07T20:20:07;39.90;;;21.85;;
63007;SDS011;49266;47.552;19.078;2022-12-07T20:24:48;37.45;;;20.77;;
63007;SDS011;49266;47.552;19.078;2022-12-07T20:29:28;40.38;;;21.48;;
63007;SDS011;49266;47.552;19.078;2022-12-07T20:34:09;39.88;;;22.08;;
63007;SDS011;49266;47.552;19.078;2022-12-07T20:38:49;41.38;;;22.90;;
63007;SDS011;49266;47.552;19.078;2022-12-07T20:43:29;38.75;;;21.63;;
63007;SDS011;49266;47.552;19.078;2022-12-07T20:48:10;39.47;;;22.52;;
63007;SDS011;49266;47.552;19.078;2022-12-07T20:52:50;42.65;;;23.67;;
63007;SDS011;49266;47.552;19.078;2022-12-07T20:57:31;45.50;;;24.05;;
63007;SDS011;49266;47.552;19.078;2022-12-07T21:02:11;51.03;;;26.02;;
63007;SDS011;49266;47.552;19.078;2022-12-07T21:06:52;45.70;;;23.88;;
63007;SDS011;49266;47.552;19.078;2022-12-07T21:11:32;48.05;;;27.55;;
63007;SDS011;49266;47.552;19.078;2022-12-07T21:16:13;50.97;;;28.08;;
63007;SDS011;49266;47.552;19.078;2022-12-07T21:20:54;48.08;;;26.17;;
63007;SDS011;49266;47.552;19.078;2022-12-07T21:25:34;50.47;;;27.05;;
63007;SDS011;49266;47.552;19.078;2022-12-07T21:30:14;48.55;;;27.13;;
63007;SDS011;49266;47.552;19.078;2022-12-07T21:34:54;46.70;;;26.00;;
63007;SDS011;49266;47.552;19.078;2022-12-07T21:39:35;49.67;;;25.95;;
63007;SDS011;49266;47.552;19.078;2022-12-07T21:44:15;42.58;;;24.08;;
63007;SDS011;49266;47.552;19.078;2022-12-07T21:48:56;45.38;;;25.55;;
63007;SDS011;49266;47.552;19.078;2022-12-07T21:53:37;47.53;;;26.17;;
63007;SDS011;49266;47.552;19.078;2022-12-07T21:58:18;49.13;;;26.52;;
63007;SDS011;49266;47.552;19.078;2022-12-07T22:02:58;45.55;;;25.42;;
63007;SDS011;49266;47.552;19.078;2022-12-07T22:07:38;47.63;;;25.25;;
63007;SDS011;49266;47.552;19.078;2022-12-07T22:12:19;42.20;;;24.88;;
63007;SDS011;49266;47.552;19.078;2022-12-07T22:16:59;39.40;;;22.60;;
63007;SDS011;49266;47.552;19.078;2022-12-07T22:21:39;43.25;;;24.08;;
63007;SDS011;49266;47.552;19.078;2022-12-07T22:26:20;40.33;;;21.98;;
63007;SDS011;49266;47.552;19.078;2022-12-07T22:31:01;35.47;;;19.25;;
63007;SDS011;49266;47.552;19.078;2022-12-07T22:35:41;33.97;;;19.35;;
63007;SDS011;49266;47.552;19.078;2022-12-07T22:40:21;34.75;;;20.38;;
63007;SDS011;49266;47.552;19.078;2022-12-07T22:45:01;35.72;;;20.65;;
63007;SDS011;49266;47.552;19.078;2022-12-07T22:49:42;37.45;;;21.58;;
63007;SDS011;49266;47.552;19.078;2022-12-07T22:54:22;36.03;;;21.08;;
63007;SDS011;49266;47.552;19.078;2022-12-07T22:59:03;42.65;;;23.25;;
63007;SDS011;49266;47.552;19.078;2022-12-07T23:03:43;40.65;;;23.63;;
63007;SDS011;49266;47.552;19.078;2022-12-07T23:08:24;45.40;;;25.05;;
63007;SDS011;49266;47.552;19.078;2022-12-07T23:13:04;45.22;;;24.60;;
63007;SDS011;49266;47.552;19.078;2022-12-07T23:18:03;44.47;;;25.08;;
63007;SDS011;49266;47.552;19.078;2022-12-07T23:22:43;42.15;;;24.95;;
63007;SDS011;49266;47.552;19.078;2022-12-07T23:27:23;45.70;;;26.08;;
63007;SDS011;49266;47.552;19.078;2022-12-07T23:32:03;46.92;;;25.08;;
63007;SDS011;49266;47.552;19.078;2022-12-07T23:36:44;46.10;;;25.35;;
63007;SDS011;49266;47.552;19.078;2022-12-07T23:41:25;45.33;;;23.98;;
63007;SDS011;49266;47.552;19.078;2022-12-07T23:46:06;40.50;;;24.38;;
63007;SDS011;49266;47.552;19.078;2022-12-07T23:50:47;42.67;;;24.27;;
63007;SDS011;49266;47.552;19.078;2022-12-07T23:55:27;41.97;;;24.27;;
